createdAt,value
2019-05-03T00:02:28.056Z,63.75
2019-05-03T00:05:36.010Z,63.70
2019-05-03T00:08:41.479Z,64.35
2019-05-03T00:11:45.230Z,64.29
2019-05-03T00:14:52.006Z,63.94
2019-05-03T00:17:55.787Z,63.86
2019-05-03T00:20:59.626Z,63.76
2019-05-03T00:24:03.346Z,63.13
2019-05-03T00:27:07.036Z,63.49
2019-05-03T00:30:11.994Z,63.64
2019-05-03T00:33:16.203Z,64.25
2019-05-03T00:36:25.791Z,64.59
2019-05-03T00:39:34.589Z,65.15
2019-05-03T00:42:38.368Z,65.19
2019-05-03T00:45:42.447Z,65.46
2019-05-03T00:48:46.193Z,64.71
2019-05-03T00:51:51.665Z,65.44
2019-05-03T00:54:55.815Z,65.94
2019-05-03T00:57:59.544Z,66.06
2019-05-03T01:01:03.910Z,65.66
2019-05-03T01:04:07.908Z,65.87
2019-05-03T01:07:11.879Z,66.55
2019-05-03T01:10:16.200Z,65.67
2019-05-03T01:13:21.777Z,65.93
2019-05-03T01:16:26.166Z,65.82
2019-05-03T01:19:31.940Z,65.19
2019-05-03T01:22:35.374Z,65.31
2019-05-03T01:25:39.364Z,65.37
2019-05-03T01:28:43.096Z,64.67
2019-05-03T01:31:46.887Z,65.21
2019-05-03T01:34:52.294Z,65.75
2019-05-03T01:37:56.179Z,65.63
2019-05-03T01:41:01.769Z,65.25
2019-05-03T01:44:05.398Z,65.56
2019-05-03T01:47:12.316Z,65.95
2019-05-03T01:50:25.495Z,66.33
2019-05-03T01:53:30.011Z,67.68
2019-05-03T01:56:33.712Z,68.39
2019-05-03T01:59:37.409Z,69.10
2019-05-03T02:03:12.411Z,69.48
2019-05-03T02:06:16.263Z,69.46
2019-05-03T02:09:21.650Z,69.52
2019-05-03T02:12:25.460Z,69.33
2019-05-03T02:15:29.151Z,70.20
2019-05-03T02:18:32.863Z,71.04
2019-05-03T02:21:36.600Z,71.30
2019-05-03T02:24:42.154Z,71.02
2019-05-03T02:27:45.994Z,71.14
2019-05-03T02:30:49.699Z,72.11
2019-05-03T02:33:53.748Z,71.55
2019-05-03T02:36:57.563Z,71.98
2019-05-03T02:40:04.266Z,71.97
2019-05-03T02:43:18.744Z,72.17
2019-05-03T02:46:29.183Z,71.80
2019-05-03T02:49:36.738Z,72.00
2019-05-03T02:52:40.452Z,71.79
2019-05-03T02:55:45.525Z,72.09
2019-05-03T02:58:49.443Z,72.02
2019-05-03T03:01:55.824Z,72.71
2019-05-03T03:04:59.531Z,72.03
2019-05-03T03:08:05.982Z,72.48
2019-05-03T03:11:10.457Z,71.76
2019-05-03T03:14:16.738Z,70.68
2019-05-03T03:17:21.983Z,71.83
2019-05-03T03:20:26.968Z,71.51
2019-05-03T03:23:35.524Z,70.69
2019-05-03T03:26:43.063Z,70.80
2019-05-03T03:29:49.437Z,71.30
2019-05-03T03:32:57.519Z,71.19
2019-05-03T03:36:29.530Z,70.85
2019-05-03T03:39:06.026Z,70.79
2019-05-03T03:42:10.892Z,70.33
2019-05-03T03:45:16.551Z,70.58
2019-05-03T03:48:20.992Z,70.22
2019-05-03T03:51:26.275Z,70.46
2019-05-03T03:54:35.516Z,70.40
2019-05-03T03:57:39.809Z,70.39
2019-05-03T04:00:46.221Z,71.69
2019-05-03T04:03:49.051Z,71.74
2019-05-03T04:06:55.752Z,71.17
2019-05-03T04:09:58.753Z,71.66
2019-05-03T04:13:05.428Z,71.68
2019-05-03T04:16:25.738Z,71.49
2019-05-03T04:19:32.211Z,71.58
2019-05-03T04:22:36.479Z,71.61
2019-05-03T04:25:40.838Z,70.99
2019-05-03T04:28:45.308Z,70.61
2019-05-03T04:31:49.322Z,71.03
2019-05-03T04:34:56.006Z,71.79
2019-05-03T04:37:59.014Z,71.19
2019-05-03T04:41:05.607Z,70.38
2019-05-03T04:44:09.437Z,71.05
2019-05-03T04:47:15.703Z,71.82
2019-05-03T04:50:19.004Z,71.40
2019-05-03T04:53:22.709Z,70.81
2019-05-03T04:56:26.728Z,70.05
2019-05-03T04:59:30.448Z,70.33
2019-05-03T05:02:35.401Z,70.49
2019-05-03T05:05:39.420Z,70.70
2019-05-03T05:08:45.846Z,68.38
2019-05-03T05:11:49.134Z,69.11
2019-05-03T05:14:53.148Z,68.07
2019-05-03T05:18:11.194Z,68.67
2019-05-03T05:21:18.103Z,69.08
2019-05-03T05:24:21.895Z,68.95
2019-05-03T05:27:48.805Z,70.07
2019-05-03T05:30:46.654Z,70.20
2019-05-03T05:33:50.368Z,68.81
2019-05-03T05:36:55.376Z,68.12
2019-05-03T05:39:59.177Z,68.19
2019-05-03T05:43:04.708Z,69.55
2019-05-03T05:46:08.356Z,70.46
2019-05-03T05:49:14.747Z,67.77
2019-05-03T05:52:18.788Z,66.76
2019-05-03T05:55:47.382Z,66.58
2019-05-03T05:58:55.460Z,66.22
2019-05-03T06:02:04.812Z,66.09
2019-05-03T06:05:08.438Z,65.12
2019-05-03T06:08:40.076Z,65.73
2019-05-03T06:11:55.396Z,65.53
2019-05-03T06:15:04.653Z,64.35
2019-05-03T06:18:14.708Z,65.38
2019-05-03T06:21:32.439Z,64.63
2019-05-03T06:24:41.255Z,65.17
2019-05-03T06:27:45.012Z,62.97
2019-05-03T06:30:55.804Z,61.30
2019-05-03T06:33:59.567Z,60.63
2019-05-03T06:37:06.557Z,60.21
2019-05-03T06:40:10.741Z,58.86
2019-05-03T06:43:15.747Z,58.89
2019-05-03T06:46:23.513Z,58.48
2019-05-03T06:49:27.079Z,59.53
2019-05-03T06:52:30.803Z,58.88
2019-05-03T06:55:35.072Z,57.80
2019-05-03T06:58:38.968Z,57.02
2019-05-03T07:01:51.398Z,56.32
2019-05-03T07:04:56.238Z,55.63
2019-05-03T07:08:06.463Z,56.47
2019-05-03T07:11:10.368Z,55.88
2019-05-03T07:14:15.534Z,54.09
2019-05-03T07:17:19.422Z,53.27
2019-05-03T07:20:25.292Z,52.83
2019-05-03T07:23:28.928Z,51.91
2019-05-03T07:26:34.411Z,51.69
2019-05-03T07:29:38.231Z,51.34
2019-05-03T07:32:44.869Z,52.78
2019-05-03T07:35:48.666Z,52.42
2019-05-03T07:38:52.341Z,51.80
2019-05-03T07:41:56.053Z,50.92
2019-05-03T07:44:59.750Z,51.17
2019-05-03T07:48:04.652Z,50.40
2019-05-03T07:51:08.505Z,50.49
2019-05-03T07:54:12.275Z,50.14
2019-05-03T07:57:45.261Z,50.76
2019-05-03T08:01:02.537Z,50.22
2019-05-03T08:03:55.328Z,51.56
2019-05-03T08:06:59.047Z,51.54
2019-05-03T08:10:05.034Z,52.83
2019-05-03T08:13:08.415Z,52.55
2019-05-03T08:16:12.105Z,60.33
2019-05-03T08:19:15.791Z,62.03
2019-05-03T08:22:19.834Z,64.70
2019-05-03T08:25:24.977Z,61.73
2019-05-03T08:28:28.793Z,60.78
2019-05-03T08:31:40.513Z,59.80
2019-05-03T08:34:55.523Z,58.79
2019-05-03T08:38:00.112Z,56.15
2019-05-03T08:41:05.659Z,57.60
2019-05-03T08:44:09.700Z,59.07
2019-05-03T08:47:15.352Z,60.77
2019-05-03T08:50:21.573Z,60.63
2019-05-03T08:53:25.701Z,61.43
2019-05-03T08:56:29.529Z,60.47
2019-05-03T08:59:35.547Z,59.03
2019-05-03T09:02:38.689Z,59.32
2019-05-03T09:05:45.344Z,59.92
2019-05-03T09:08:47.847Z,57.78
2019-05-03T09:11:51.789Z,57.63
2019-05-03T09:14:55.489Z,52.87
2019-05-03T09:17:59.214Z,51.42
2019-05-03T09:21:05.011Z,52.89
2019-05-03T09:24:09.100Z,49.95
2019-05-03T09:27:14.822Z,46.27
2019-05-03T09:30:19.074Z,43.42
2019-05-03T09:33:24.805Z,43.68
2019-05-03T09:36:28.330Z,43.00
2019-05-03T09:39:32.393Z,43.85
2019-05-03T09:42:36.073Z,47.00
2019-05-03T09:45:39.769Z,53.87
2019-05-03T09:48:45.485Z,57.95
2019-05-03T09:51:48.903Z,59.29
2019-05-03T09:54:54.849Z,59.70
2019-05-03T09:57:58.569Z,54.86
2019-05-03T10:01:05.297Z,55.20
2019-05-03T10:04:07.933Z,53.54
2019-05-03T10:07:11.701Z,51.54
2019-05-03T10:10:15.758Z,51.16
2019-05-03T10:13:23.373Z,49.67
2019-05-03T10:16:26.912Z,48.91
2019-05-03T10:19:39.252Z,49.06
2019-05-03T10:22:36.089Z,48.53
2019-05-03T10:25:40.443Z,46.43
2019-05-03T10:28:44.310Z,46.19
2019-05-03T10:31:56.070Z,44.07
2019-05-03T10:35:05.670Z,45.68
2019-05-03T10:38:09.105Z,46.25
2019-05-03T10:41:12.876Z,49.72
2019-05-03T10:44:16.591Z,53.62
2019-05-03T10:47:20.284Z,56.63
2019-05-03T10:50:25.269Z,55.80
2019-05-03T10:53:34.674Z,52.76
2019-05-03T10:57:05.277Z,53.91
2019-05-03T11:00:38.653Z,47.89
2019-05-03T11:03:16.524Z,46.82
2019-05-03T11:06:20.229Z,44.84
2019-05-03T11:09:25.883Z,43.32
2019-05-03T11:12:29.822Z,42.11
2019-05-03T11:15:35.077Z,42.03
2019-05-03T11:18:39.306Z,41.50
2019-05-03T11:21:45.310Z,39.96
2019-05-03T11:24:48.420Z,39.27
2019-05-03T11:27:55.282Z,37.57
2019-05-03T11:31:16.549Z,39.34
2019-05-03T11:34:22.704Z,41.33
2019-05-03T11:37:40.167Z,42.99
2019-05-03T11:40:45.488Z,42.15
2019-05-03T11:43:50.181Z,43.15
2019-05-03T11:46:55.109Z,41.89
2019-05-03T11:49:58.835Z,42.42
2019-05-03T11:53:02.526Z,42.72
2019-05-03T11:56:06.698Z,42.00
2019-05-03T11:59:10.400Z,41.04
2019-05-03T12:02:39.332Z,39.94
2019-05-03T12:05:45.546Z,40.17
2019-05-03T12:08:49.246Z,40.78
2019-05-03T12:11:55.408Z,40.31
2019-05-03T12:14:59.374Z,41.04
2019-05-03T12:18:06.861Z,42.93
2019-05-03T12:21:12.806Z,47.40
2019-05-03T12:24:17.318Z,48.47
2019-05-03T12:27:21.325Z,50.23
2019-05-03T12:30:27.656Z,46.84
2019-05-03T12:33:30.499Z,46.08
2019-05-03T12:36:38.849Z,43.43
2019-05-03T12:39:39.654Z,42.06
2019-05-03T12:42:45.255Z,41.04
2019-05-03T12:45:48.812Z,40.77
2019-05-03T12:48:52.511Z,38.89
2019-05-03T12:51:56.194Z,39.20
2019-05-03T12:54:59.893Z,39.01
2019-05-03T12:58:05.891Z,41.39
2019-05-03T13:01:18.581Z,43.22
2019-05-03T13:04:25.108Z,45.23
2019-05-03T13:07:34.857Z,43.89
2019-05-03T13:10:38.668Z,44.04
2019-05-03T13:13:42.669Z,43.41
2019-05-03T13:16:46.588Z,42.97
2019-05-03T13:19:50.298Z,43.82
2019-05-03T13:22:55.922Z,41.82
2019-05-03T13:25:59.426Z,40.46
2019-05-03T13:29:03.220Z,38.52
2019-05-03T13:32:06.933Z,38.02
2019-05-03T13:35:11.262Z,36.67
2019-05-03T13:38:15.010Z,36.84
2019-05-03T13:41:18.730Z,38.29
2019-05-03T13:44:24.769Z,40.22
2019-05-03T13:47:28.612Z,40.02
2019-05-03T13:50:32.315Z,41.84
2019-05-03T13:53:36.329Z,43.26
2019-05-03T13:56:40.914Z,43.95
2019-05-03T13:59:44.934Z,43.86
2019-05-03T14:02:48.776Z,42.04
2019-05-03T14:05:52.482Z,42.16
2019-05-03T14:08:56.170Z,42.56
2019-05-03T14:11:59.876Z,44.37
2019-05-03T14:15:05.635Z,44.05
2019-05-03T14:18:09.498Z,46.03
2019-05-03T14:21:27.932Z,46.44
2019-05-03T14:24:31.612Z,46.26
2019-05-03T14:27:35.388Z,47.45
2019-05-03T14:30:39.070Z,46.88
2019-05-03T14:33:44.772Z,45.41
2019-05-03T14:36:48.224Z,44.89
2019-05-03T14:39:51.922Z,45.02
2019-05-03T14:42:55.695Z,45.26
2019-05-03T14:45:59.409Z,44.22
2019-05-03T14:49:05.340Z,45.30
2019-05-03T14:52:08.829Z,45.45
2019-05-03T14:55:19.175Z,44.03
2019-05-03T14:58:40.934Z,43.38
2019-05-03T15:01:51.236Z,44.62
2019-05-03T15:04:54.956Z,44.63
2019-05-03T15:07:59.046Z,44.71
2019-05-03T15:11:02.764Z,45.34
2019-05-03T15:14:06.479Z,45.94
2019-05-03T15:17:10.449Z,46.35
2019-05-03T15:20:14.834Z,44.86
2019-05-03T15:23:18.560Z,45.51
2019-05-03T15:26:24.695Z,44.58
2019-05-03T15:29:27.898Z,44.91
2019-05-03T15:32:31.573Z,42.77
2019-05-03T15:35:35.401Z,41.82
2019-05-03T15:38:39.122Z,40.07
2019-05-03T15:41:44.826Z,39.91
2019-05-03T15:45:20.082Z,41.92
2019-05-03T15:48:26.592Z,39.88
2019-05-03T15:51:30.353Z,38.63
2019-05-03T15:54:35.302Z,38.80
2019-05-03T15:57:39.135Z,38.49
2019-05-03T16:00:44.525Z,38.89
2019-05-03T16:03:48.339Z,40.06
2019-05-03T16:06:52.039Z,40.17
2019-05-03T16:09:55.816Z,40.92
2019-05-03T16:12:59.818Z,40.42
2019-05-03T16:16:04.326Z,41.52
2019-05-03T16:19:08.082Z,40.25
2019-05-03T16:22:11.767Z,39.75
2019-05-03T16:25:16.007Z,39.82
2019-05-03T16:28:28.918Z,39.64
2019-05-03T16:31:34.459Z,40.13
2019-05-03T16:34:38.186Z,40.95
2019-05-03T16:37:41.879Z,40.73
2019-05-03T16:40:45.570Z,41.05
2019-05-03T16:43:49.285Z,40.97
2019-05-03T16:46:53.249Z,41.40
2019-05-03T16:49:56.950Z,43.26
2019-05-03T16:53:00.625Z,42.49
2019-05-03T16:56:04.477Z,42.16
2019-05-03T16:59:08.158Z,42.26
2019-05-03T17:02:11.872Z,41.92
2019-05-03T17:05:40.452Z,42.42
2019-05-03T17:09:01.988Z,42.56
2019-05-03T17:12:07.987Z,43.08
2019-05-03T17:15:14.392Z,43.31
2019-05-03T17:18:17.889Z,45.07
2019-05-03T17:21:21.578Z,45.05
2019-05-03T17:24:25.284Z,45.32
2019-05-03T17:27:29.017Z,45.52
2019-05-03T17:30:35.146Z,44.37
2019-05-03T17:33:38.138Z,43.78
2019-05-03T17:36:41.844Z,44.71
2019-05-03T17:40:05.306Z,44.71
2019-05-03T17:43:37.345Z,50.74
2019-05-03T17:46:41.050Z,53.01
2019-05-03T17:49:45.210Z,58.22
2019-05-03T17:52:55.809Z,60.90
2019-05-03T17:56:05.834Z,59.07
2019-05-03T17:59:17.137Z,59.39
2019-05-03T18:02:31.097Z,59.28
2019-05-03T18:05:55.443Z,59.51
2019-05-03T18:09:05.743Z,59.99
2019-05-03T18:12:09.462Z,61.48
2019-05-03T18:15:14.764Z,62.01
2019-05-03T18:18:18.506Z,61.59
2019-05-03T18:21:24.476Z,61.63
2019-05-03T18:24:28.282Z,61.00
2019-05-03T18:27:32.026Z,61.58
2019-05-03T18:30:35.696Z,61.30
2019-05-03T18:33:39.657Z,61.22
2019-05-03T18:36:45.006Z,60.94
2019-05-03T18:39:49.119Z,60.13
2019-05-03T18:42:55.531Z,61.72
2019-05-03T18:46:18.253Z,61.08
2019-05-03T18:49:21.953Z,60.55
2019-05-03T18:52:25.721Z,60.78
2019-05-03T18:55:29.395Z,59.87
2019-05-03T18:58:33.110Z,59.80
2019-05-03T19:01:37.059Z,58.38
2019-05-03T19:04:48.600Z,59.58
2019-05-03T19:07:59.407Z,59.81
2019-05-03T19:11:08.476Z,60.46
2019-05-03T19:14:15.017Z,59.74
2019-05-03T19:17:40.969Z,59.86
2019-05-03T19:20:45.536Z,60.45
2019-05-03T19:23:49.356Z,59.28
2019-05-03T19:26:54.350Z,60.30
2019-05-03T19:29:58.132Z,63.18
2019-05-03T19:33:01.811Z,71.25
2019-05-03T19:36:05.526Z,74.41
2019-05-03T19:39:09.394Z,74.25
2019-05-03T19:42:13.064Z,76.52
2019-05-03T19:45:17.004Z,76.08
2019-05-03T19:48:21.048Z,75.64
2019-05-03T19:51:25.020Z,75.73
2019-05-03T19:54:28.725Z,75.94
2019-05-03T19:57:37.109Z,76.22
2019-05-03T20:01:08.657Z,76.42
2019-05-03T20:04:40.494Z,76.53
2019-05-03T20:08:21.497Z,77.02
2019-05-03T20:11:25.277Z,77.17
2019-05-03T20:14:28.950Z,77.33
2019-05-03T20:17:34.585Z,77.15
2019-05-03T20:20:38.036Z,76.90
2019-05-03T20:23:41.714Z,76.70
2019-05-03T20:26:45.423Z,77.12
2019-05-03T20:29:49.105Z,76.48
2019-05-03T20:32:52.780Z,75.95
2019-05-03T20:35:56.582Z,75.38
2019-05-03T20:39:00.256Z,76.10
2019-05-03T20:42:04.552Z,74.94
2019-05-03T20:45:11.969Z,76.17
2019-05-03T20:48:16.744Z,75.16
2019-05-03T20:51:20.482Z,75.21
2019-05-03T20:54:24.156Z,76.63
2019-05-03T20:57:27.851Z,76.07
2019-05-03T21:00:34.567Z,75.38
2019-05-03T21:03:37.019Z,76.54
2019-05-03T21:06:40.709Z,75.85
2019-05-03T21:09:45.590Z,75.34
2019-05-03T21:12:49.467Z,74.94
2019-05-03T21:16:12.199Z,75.54
2019-05-03T21:19:35.294Z,75.08
2019-05-03T21:22:44.889Z,73.90
2019-05-03T21:26:11.997Z,75.39
2019-05-03T21:29:07.661Z,75.21
2019-05-03T21:32:11.368Z,74.68
2019-05-03T21:35:15.200Z,75.45
2019-05-03T21:38:18.888Z,75.64
2019-05-03T21:41:24.457Z,75.80
2019-05-03T21:44:31.846Z,75.39
2019-05-03T21:47:44.559Z,75.59
2019-05-03T21:50:48.241Z,74.85
2019-05-03T21:53:51.928Z,74.70
2019-05-03T21:56:57.972Z,74.30
2019-05-03T22:00:01.481Z,75.23
2019-05-03T22:03:05.357Z,75.37
2019-05-03T22:06:09.057Z,74.82
2019-05-03T22:09:13.343Z,74.78
2019-05-03T22:12:17.056Z,75.44
2019-05-03T22:15:39.930Z,75.97
2019-05-03T22:18:45.488Z,75.21
2019-05-03T22:21:57.840Z,76.03
2019-05-03T22:25:01.609Z,75.67
2019-05-03T22:28:07.180Z,75.13
2019-05-03T22:31:10.705Z,75.50
2019-05-03T22:34:15.128Z,75.12
2019-05-03T22:37:18.968Z,75.04
2019-05-03T22:40:22.653Z,75.33
2019-05-03T22:43:26.369Z,75.01
2019-05-03T22:46:30.064Z,75.68
2019-05-03T22:49:34.638Z,75.02
2019-05-03T22:52:39.499Z,74.57
2019-05-03T22:55:44.991Z,75.27
2019-05-03T22:58:48.605Z,75.46
2019-05-03T23:01:52.300Z,75.55
2019-05-03T23:04:56.009Z,74.33
2019-05-03T23:07:59.943Z,75.48
2019-05-03T23:11:05.254Z,74.83
2019-05-03T23:14:09.010Z,75.20
2019-05-03T23:17:14.778Z,74.35
2019-05-03T23:20:39.964Z,75.07
2019-05-03T23:23:51.240Z,75.70
2019-05-03T23:26:54.940Z,74.80
2019-05-03T23:29:58.637Z,75.01
2019-05-03T23:33:02.646Z,75.27
2019-05-03T23:36:06.367Z,74.60
2019-05-03T23:39:10.015Z,75.12
2019-05-03T23:42:15.479Z,75.24
2019-05-03T23:45:19.317Z,75.12
2019-05-03T23:48:23.018Z,75.45
2019-05-03T23:51:49.337Z,75.62
2019-05-03T23:54:54.902Z,76.16
2019-05-03T23:57:58.439Z,76.44
